createdAt,value
2017-12-16T00:02:14.643Z,22.00
2017-12-16T00:04:42.651Z,21.90
2017-12-16T00:07:10.712Z,22.00
2017-12-16T00:09:38.911Z,22.00
2017-12-16T00:12:06.992Z,22.00
2017-12-16T00:14:35.936Z,22.00
2017-12-16T00:17:04.125Z,21.90
2017-12-16T00:19:32.192Z,22.00
2017-12-16T00:22:00.263Z,22.00
2017-12-16T00:24:28.431Z,22.00
2017-12-16T00:26:56.443Z,21.90
2017-12-16T00:29:24.513Z,21.80
2017-12-16T00:31:52.721Z,21.90
2017-12-16T00:34:21.541Z,21.80
2017-12-16T00:36:49.608Z,21.80
2017-12-16T00:39:17.755Z,21.90
2017-12-16T00:41:46.551Z,21.90
2017-12-16T00:44:15.315Z,21.90
2017-12-16T00:46:43.475Z,21.90
2017-12-16T00:49:11.600Z,21.90
2017-12-16T00:51:39.659Z,21.70
2017-12-16T00:54:08.598Z,21.80
2017-12-16T00:56:36.661Z,21.80
2017-12-16T00:59:04.686Z,21.80
2017-12-16T01:01:33.608Z,21.80
2017-12-16T01:04:01.677Z,21.80
2017-12-16T01:06:29.744Z,21.80
2017-12-16T01:08:57.914Z,21.90
2017-12-16T01:11:26.723Z,21.80
2017-12-16T01:13:54.791Z,21.80
2017-12-16T01:16:23.121Z,21.90
2017-12-16T01:18:51.307Z,21.90
2017-12-16T01:21:19.389Z,21.90
2017-12-16T01:23:48.336Z,22.00
2017-12-16T01:26:16.383Z,22.00
2017-12-16T01:28:44.418Z,21.90
2017-12-16T01:31:12.640Z,21.90
2017-12-16T01:33:52.031Z,21.90
2017-12-16T01:36:31.708Z,21.80
2017-12-16T01:38:59.783Z,21.70
2017-12-16T01:41:28.055Z,21.70
2017-12-16T01:43:56.220Z,21.60
2017-12-16T01:46:25.020Z,21.70
2017-12-16T01:48:53.125Z,21.70
2017-12-16T01:51:21.412Z,21.70
2017-12-16T01:53:49.563Z,21.60
2017-12-16T01:56:17.727Z,21.40
2017-12-16T01:58:45.994Z,21.30
2017-12-16T02:01:14.876Z,21.30
2017-12-16T02:03:43.830Z,21.30
2017-12-16T02:06:12.248Z,21.30
2017-12-16T02:08:41.048Z,21.20
2017-12-16T02:11:09.903Z,21.10
2017-12-16T02:13:38.095Z,21.10
2017-12-16T02:16:06.252Z,21.30
2017-12-16T02:18:34.493Z,21.30
2017-12-16T02:21:02.895Z,21.30
2017-12-16T02:23:31.604Z,21.30
2017-12-16T02:25:59.884Z,21.20
2017-12-16T02:28:28.207Z,21.10
2017-12-16T02:30:56.431Z,21.20
2017-12-16T02:33:24.570Z,21.10
2017-12-16T02:35:52.990Z,21.10
2017-12-16T02:38:21.244Z,21.20
2017-12-16T02:40:49.295Z,21.20
2017-12-16T02:43:17.748Z,21.10
2017-12-16T02:45:46.651Z,21.00
2017-12-16T02:48:15.665Z,20.90
2017-12-16T02:50:44.059Z,20.90
2017-12-16T02:53:12.323Z,20.80
2017-12-16T02:55:40.496Z,20.80
2017-12-16T02:58:08.924Z,20.80
2017-12-16T03:00:37.116Z,20.70
2017-12-16T03:03:06.056Z,20.80
2017-12-16T03:05:34.471Z,20.80
2017-12-16T03:08:02.833Z,20.80
2017-12-16T03:10:31.183Z,20.80
2017-12-16T03:12:59.669Z,20.80
2017-12-16T03:15:27.982Z,20.70
2017-12-16T03:17:56.235Z,20.60
2017-12-16T03:20:24.807Z,20.80
2017-12-16T03:22:53.088Z,20.80
2017-12-16T03:25:21.390Z,20.90
2017-12-16T03:27:49.816Z,21.10
2017-12-16T03:30:18.843Z,21.00
2017-12-16T03:32:47.156Z,21.00
2017-12-16T03:35:15.548Z,21.70
2017-12-16T03:37:43.818Z,22.80
2017-12-16T03:40:12.128Z,23.30
2017-12-16T03:42:41.303Z,24.50
2017-12-16T03:45:09.574Z,24.50
2017-12-16T03:47:37.881Z,24.80
2017-12-16T03:50:06.860Z,23.80
2017-12-16T03:52:35.149Z,23.80
2017-12-16T03:55:04.033Z,24.80
2017-12-16T03:57:32.328Z,24.80
2017-12-16T04:00:01.204Z,22.90
2017-12-16T04:02:29.383Z,22.90
2017-12-16T04:04:58.513Z,22.00
2017-12-16T04:07:26.639Z,22.00
2017-12-16T04:09:58.075Z,21.90
2017-12-16T04:12:28.783Z,22.00
2017-12-16T04:14:57.222Z,21.90
2017-12-16T04:17:25.439Z,22.00
2017-12-16T04:19:53.748Z,22.10
2017-12-16T04:22:21.959Z,21.80
2017-12-16T04:24:50.891Z,21.70
2017-12-16T04:27:19.119Z,21.70
2017-12-16T04:29:47.376Z,21.90
2017-12-16T04:32:15.563Z,22.10
2017-12-16T04:34:43.786Z,22.10
2017-12-16T04:37:11.951Z,22.30
2017-12-16T04:39:40.141Z,22.10
2017-12-16T04:42:08.512Z,22.20
2017-12-16T04:44:36.792Z,22.60
2017-12-16T04:47:04.996Z,22.80
2017-12-16T04:49:33.379Z,22.60
2017-12-16T04:52:08.819Z,22.80
2017-12-16T04:54:37.111Z,23.00
2017-12-16T04:57:05.339Z,23.50
2017-12-16T04:59:35.484Z,23.50
2017-12-16T05:02:03.680Z,23.50
2017-12-16T05:04:35.565Z,23.40
2017-12-16T05:07:04.052Z,23.20
2017-12-16T05:09:33.694Z,23.10
2017-12-16T05:12:01.804Z,23.20
2017-12-16T05:14:31.131Z,23.40
2017-12-16T05:16:59.282Z,23.60
2017-12-16T05:19:29.960Z,23.80
2017-12-16T05:22:02.426Z,24.00
2017-12-16T05:24:30.707Z,23.90
2017-12-16T05:27:00.365Z,24.10
2017-12-16T05:29:30.720Z,24.20
2017-12-16T05:31:58.795Z,24.50
2017-12-16T05:34:27.947Z,24.70
2017-12-16T05:36:56.329Z,24.60
2017-12-16T05:39:24.692Z,24.70
2017-12-16T05:41:53.553Z,24.50
2017-12-16T05:44:21.921Z,24.40
2017-12-16T05:46:50.060Z,24.60
2017-12-16T05:49:22.814Z,24.70
2017-12-16T05:51:51.500Z,24.80
2017-12-16T05:54:20.469Z,25.00
2017-12-16T05:56:48.849Z,25.00
2017-12-16T05:59:17.144Z,24.90
2017-12-16T06:01:46.050Z,25.20
2017-12-16T06:04:15.275Z,25.10
2017-12-16T06:06:43.667Z,25.10
2017-12-16T06:09:11.887Z,25.10
2017-12-16T06:11:40.092Z,25.30
2017-12-16T06:14:08.331Z,25.40
2017-12-16T06:16:36.573Z,25.40
2017-12-16T06:19:05.007Z,25.30
2017-12-16T06:21:34.118Z,25.60
2017-12-16T06:24:03.095Z,25.70
2017-12-16T06:26:32.323Z,25.90
2017-12-16T06:29:00.800Z,25.80
2017-12-16T06:31:28.948Z,25.90
2017-12-16T06:33:57.164Z,25.90
2017-12-16T06:36:25.463Z,26.10
2017-12-16T06:38:53.670Z,26.20
2017-12-16T06:41:21.804Z,26.20
2017-12-16T06:43:50.844Z,26.20
2017-12-16T06:46:19.796Z,26.60
2017-12-16T06:48:48.173Z,26.60
2017-12-16T06:51:16.472Z,26.60
2017-12-16T06:53:44.766Z,26.50
2017-12-16T06:56:13.152Z,26.50
2017-12-16T06:58:41.446Z,26.60
2017-12-16T07:01:10.467Z,26.70
2017-12-16T07:03:38.617Z,26.70
2017-12-16T07:06:07.697Z,27.10
2017-12-16T07:08:35.937Z,27.10
2017-12-16T07:11:04.132Z,27.00
2017-12-16T07:13:32.415Z,27.00
2017-12-16T07:16:00.615Z,27.00
2017-12-16T07:18:29.626Z,26.90
2017-12-16T07:20:58.656Z,27.20
2017-12-16T07:23:26.852Z,27.20
2017-12-16T07:25:55.112Z,27.40
2017-12-16T07:28:23.523Z,27.20
2017-12-16T07:30:51.613Z,27.20
2017-12-16T07:33:20.455Z,27.20
2017-12-16T07:35:48.743Z,27.20
2017-12-16T07:38:16.763Z,27.10
2017-12-16T07:40:45.593Z,27.20
2017-12-16T07:43:13.751Z,27.20
2017-12-16T07:45:41.841Z,27.20
2017-12-16T07:48:09.933Z,27.40
2017-12-16T07:50:38.096Z,27.40
2017-12-16T07:53:06.142Z,27.60
2017-12-16T07:55:34.187Z,27.80
2017-12-16T07:58:03.090Z,27.80
2017-12-16T08:00:32.067Z,27.70
2017-12-16T08:03:00.905Z,27.90
2017-12-16T08:05:29.156Z,27.90
2017-12-16T08:07:57.971Z,27.90
2017-12-16T08:10:25.972Z,28.00
2017-12-16T08:12:54.123Z,28.10
2017-12-16T08:15:22.694Z,28.10
2017-12-16T08:17:50.785Z,28.00
2017-12-16T08:20:18.888Z,28.10
2017-12-16T08:22:46.934Z,28.20
2017-12-16T08:25:14.906Z,28.10
2017-12-16T08:27:43.055Z,28.20
2017-12-16T08:30:11.316Z,28.30
2017-12-16T08:32:40.023Z,28.40
2017-12-16T08:35:08.143Z,28.40
2017-12-16T08:37:36.132Z,28.20
2017-12-16T08:40:04.876Z,28.40
2017-12-16T08:42:32.951Z,28.40
2017-12-16T08:45:01.018Z,28.50
2017-12-16T08:47:29.019Z,28.40
2017-12-16T08:49:57.286Z,28.40
2017-12-16T08:52:25.337Z,28.30
2017-12-16T08:54:53.331Z,28.40
2017-12-16T08:57:21.551Z,28.60
2017-12-16T08:59:50.378Z,28.60
2017-12-16T09:02:18.449Z,28.50
2017-12-16T09:04:46.554Z,28.50
2017-12-16T09:07:14.559Z,28.50
2017-12-16T09:09:43.377Z,28.60
2017-12-16T09:12:11.582Z,28.60
2017-12-16T09:14:39.600Z,28.60
2017-12-16T09:17:08.331Z,28.80
2017-12-16T09:19:36.442Z,28.80
2017-12-16T09:22:05.190Z,28.80
2017-12-16T09:24:33.182Z,28.70
2017-12-16T09:27:01.337Z,28.60
2017-12-16T09:29:29.372Z,28.70
2017-12-16T09:31:57.510Z,28.70
2017-12-16T09:34:25.619Z,28.80
2017-12-16T09:36:53.664Z,28.80
2017-12-16T09:39:21.639Z,28.90
2017-12-16T09:41:49.770Z,28.90
2017-12-16T09:44:17.770Z,29.00
2017-12-16T09:46:45.763Z,29.00
2017-12-16T09:49:14.696Z,28.50
2017-12-16T09:51:42.742Z,28.50
2017-12-16T09:54:10.703Z,28.60
2017-12-16T09:56:39.506Z,28.70
2017-12-16T09:59:07.508Z,28.70
2017-12-16T10:01:35.639Z,28.70
2017-12-16T10:04:04.511Z,28.60
2017-12-16T10:06:32.651Z,28.60
2017-12-16T10:09:00.712Z,28.60
2017-12-16T10:11:28.879Z,28.70
2017-12-16T10:13:56.863Z,28.50
2017-12-16T10:16:24.867Z,28.60
2017-12-16T10:18:53.056Z,28.60
2017-12-16T10:21:21.092Z,28.70
2017-12-16T10:23:49.082Z,28.60
2017-12-16T10:26:17.285Z,28.50
2017-12-16T10:28:46.062Z,28.60
2017-12-16T10:31:14.827Z,28.60
2017-12-16T10:33:43.143Z,28.60
2017-12-16T10:36:12.006Z,28.60
2017-12-16T10:38:39.999Z,28.60
2017-12-16T10:41:08.907Z,28.30
2017-12-16T10:43:37.684Z,28.20
2017-12-16T10:46:06.471Z,28.30
2017-12-16T10:48:35.299Z,28.30
2017-12-16T10:51:03.431Z,28.30
2017-12-16T10:53:31.574Z,28.30
2017-12-16T10:55:59.813Z,28.20
2017-12-16T10:58:27.915Z,28.30
2017-12-16T11:00:55.975Z,28.30
2017-12-16T11:03:24.103Z,28.20
2017-12-16T11:05:52.103Z,28.10
2017-12-16T11:08:20.172Z,28.20
2017-12-16T11:10:48.319Z,28.10
2017-12-16T11:13:16.368Z,28.10
2017-12-16T11:15:44.347Z,28.10
2017-12-16T11:18:12.488Z,28.20
2017-12-16T11:20:40.556Z,28.20
2017-12-16T11:23:08.651Z,28.20
2017-12-16T11:25:36.824Z,28.20
2017-12-16T11:28:04.856Z,28.20
2017-12-16T11:30:32.924Z,28.20
2017-12-16T11:33:01.901Z,28.00
2017-12-16T11:35:30.746Z,27.70
2017-12-16T11:37:58.838Z,27.70
2017-12-16T11:53:33.875Z,27.50
2017-12-16T11:56:01.907Z,27.50
2017-12-16T11:58:29.937Z,27.50
2017-12-16T12:00:58.070Z,27.50
2017-12-16T12:03:26.141Z,27.60
2017-12-16T12:05:54.143Z,27.60
2017-12-16T12:08:22.267Z,27.50
2017-12-16T12:10:50.292Z,27.20
2017-12-16T12:13:18.242Z,27.20
2017-12-16T12:15:46.403Z,27.20
2017-12-16T12:18:14.446Z,27.20
2017-12-16T12:20:42.525Z,27.20
2017-12-16T12:23:10.700Z,27.10
2017-12-16T12:25:38.718Z,26.90
2017-12-16T12:28:06.770Z,26.60
2017-12-16T12:30:34.847Z,26.60
2017-12-16T12:33:02.945Z,26.40
2017-12-16T12:35:31.136Z,26.40
2017-12-16T12:38:00.053Z,26.40
2017-12-16T12:40:28.067Z,26.30
2017-12-16T12:42:56.079Z,26.00
2017-12-16T12:45:25.019Z,26.00
2017-12-16T12:47:53.038Z,26.00
2017-12-16T12:50:21.840Z,25.80
2017-12-16T12:52:50.735Z,25.80
2017-12-16T12:55:19.552Z,25.50
2017-12-16T12:57:47.583Z,25.50
2017-12-16T13:00:16.463Z,25.20
2017-12-16T13:02:44.524Z,25.20
2017-12-16T13:05:12.534Z,25.20
2017-12-16T13:07:41.457Z,25.00
2017-12-16T13:10:09.527Z,25.00
2017-12-16T13:12:37.572Z,25.00
2017-12-16T13:15:06.588Z,24.90
2017-12-16T13:17:34.607Z,24.80
2017-12-16T13:20:02.652Z,24.90
2017-12-16T13:22:30.793Z,24.90
2017-12-16T13:24:58.831Z,24.90
2017-12-16T13:27:26.888Z,24.80
2017-12-16T13:29:55.026Z,24.70
2017-12-16T13:32:23.823Z,24.60
2017-12-16T13:34:51.876Z,24.60
2017-12-16T13:37:20.208Z,24.60
2017-12-16T13:39:48.338Z,24.60
2017-12-16T13:42:16.356Z,24.60
2017-12-16T13:44:44.487Z,24.60
2017-12-16T13:47:12.548Z,24.50
2017-12-16T13:49:40.568Z,24.40
2017-12-16T13:52:08.747Z,24.50
2017-12-16T13:54:36.779Z,24.50
2017-12-16T13:57:04.916Z,24.40
2017-12-16T13:59:33.834Z,24.20
2017-12-16T14:02:01.892Z,24.20
2017-12-16T14:04:30.692Z,24.10
2017-12-16T14:06:59.647Z,24.00
2017-12-16T14:09:27.658Z,24.10
2017-12-16T14:11:55.709Z,24.00
2017-12-16T14:14:24.617Z,23.90
2017-12-16T14:16:53.415Z,24.00
2017-12-16T14:19:21.439Z,24.00
2017-12-16T14:21:49.646Z,23.90
2017-12-16T14:24:18.457Z,23.90
2017-12-16T14:26:46.603Z,23.90
2017-12-16T14:29:15.679Z,23.90
2017-12-16T14:31:43.704Z,23.80
2017-12-16T14:34:11.765Z,23.90
2017-12-16T14:36:39.965Z,23.80
2017-12-16T14:39:08.144Z,23.70
2017-12-16T14:41:36.353Z,23.70
2017-12-16T14:44:04.567Z,23.70
2017-12-16T14:46:33.392Z,23.50
2017-12-16T14:49:01.410Z,23.50
2017-12-16T14:51:30.299Z,23.30
2017-12-16T14:53:58.311Z,23.30
2017-12-16T14:56:26.416Z,23.30
2017-12-16T14:58:54.550Z,23.20
2017-12-16T15:01:22.609Z,23.00
2017-12-16T15:03:51.428Z,23.10
2017-12-16T15:06:19.610Z,23.00
2017-12-16T15:08:47.631Z,23.10
2017-12-16T15:11:16.398Z,23.20
2017-12-16T15:13:44.519Z,23.20
2017-12-16T15:16:12.527Z,23.20
2017-12-16T15:18:40.538Z,23.20
2017-12-16T15:21:09.407Z,23.10
2017-12-16T15:23:37.435Z,23.10
2017-12-16T15:26:05.455Z,23.10
2017-12-16T15:28:33.653Z,23.10
2017-12-16T15:31:02.456Z,23.10
2017-12-16T15:33:31.248Z,23.10
2017-12-16T15:36:00.160Z,23.20
2017-12-16T15:38:28.191Z,23.20
2017-12-16T15:40:57.135Z,23.20
2017-12-16T15:43:25.321Z,23.20
2017-12-16T15:45:53.335Z,23.10
2017-12-16T15:48:22.142Z,23.10
2017-12-16T15:50:51.070Z,23.10
2017-12-16T15:53:19.132Z,23.00
2017-12-16T15:55:47.188Z,23.10
2017-12-16T15:58:15.330Z,23.10
2017-12-16T16:00:44.217Z,23.00
2017-12-16T16:03:12.333Z,23.00
2017-12-16T16:05:40.527Z,23.00
2017-12-16T16:08:08.553Z,23.00
2017-12-16T16:10:37.408Z,23.00
2017-12-16T16:13:05.666Z,23.10
2017-12-16T16:15:33.757Z,23.10
2017-12-16T16:18:01.836Z,23.10
2017-12-16T16:20:30.097Z,23.10
2017-12-16T16:22:58.148Z,23.10
2017-12-16T16:25:26.213Z,23.10
2017-12-16T16:27:54.387Z,23.10
2017-12-16T16:30:22.460Z,23.00
2017-12-16T16:32:50.529Z,23.00
2017-12-16T16:35:18.729Z,22.90
2017-12-16T16:37:46.802Z,22.90
2017-12-16T16:40:14.888Z,22.90
2017-12-16T16:42:43.195Z,22.90
2017-12-16T16:45:11.253Z,22.90
2017-12-16T16:47:39.346Z,22.90
2017-12-16T16:50:08.303Z,22.90
2017-12-16T16:52:36.392Z,22.90
2017-12-16T16:55:04.471Z,23.00
2017-12-16T16:57:32.684Z,22.90
2017-12-16T17:00:01.451Z,22.90
2017-12-16T17:02:29.508Z,22.90
2017-12-16T17:04:57.658Z,22.80
2017-12-16T17:07:25.698Z,22.80
2017-12-16T17:09:53.756Z,22.90
2017-12-16T17:12:22.693Z,22.80
2017-12-16T17:14:50.735Z,22.80
2017-12-16T17:17:19.514Z,22.60
2017-12-16T17:19:48.482Z,22.60
2017-12-16T17:22:16.646Z,22.50
2017-12-16T17:24:44.734Z,22.50
2017-12-16T17:27:12.934Z,22.50
2017-12-16T17:29:41.797Z,22.50
2017-12-16T17:32:09.868Z,22.40
2017-12-16T17:34:38.023Z,22.40
2017-12-16T17:37:06.076Z,22.50
2017-12-16T17:39:34.192Z,22.50
2017-12-16T17:42:02.343Z,22.40
2017-12-16T17:44:30.515Z,22.50
2017-12-16T17:46:58.599Z,22.40
2017-12-16T17:49:26.747Z,22.50
2017-12-16T17:51:54.825Z,22.40
2017-12-16T17:54:22.847Z,22.50
2017-12-16T17:56:51.745Z,22.40
2017-12-16T17:59:20.581Z,22.40
2017-12-16T18:01:48.622Z,22.40
2017-12-16T18:04:17.550Z,22.40
2017-12-16T18:06:45.607Z,22.40
2017-12-16T18:09:13.673Z,22.40
2017-12-16T18:11:41.894Z,22.40
2017-12-16T18:14:09.971Z,22.30
2017-12-16T18:16:38.659Z,22.20
2017-12-16T18:19:06.814Z,22.20
2017-12-16T18:21:34.878Z,22.20
2017-12-16T18:24:02.957Z,22.20
2017-12-16T18:26:31.131Z,22.30
2017-12-16T18:28:59.174Z,22.30
2017-12-16T18:31:27.203Z,22.30
2017-12-16T18:33:55.363Z,22.20
2017-12-16T18:36:23.407Z,22.20
2017-12-16T18:38:51.447Z,22.20
2017-12-16T18:41:20.367Z,22.20
2017-12-16T18:43:48.444Z,22.20
2017-12-16T18:46:16.618Z,22.20
2017-12-16T18:48:44.810Z,22.10
2017-12-16T18:51:12.838Z,22.20
2017-12-16T18:53:41.632Z,22.20
2017-12-16T18:56:10.600Z,22.10
2017-12-16T18:58:38.656Z,22.10
2017-12-16T19:01:06.853Z,22.20
2017-12-16T19:03:35.004Z,22.10
2017-12-16T19:06:03.043Z,22.10
2017-12-16T19:08:31.067Z,22.10
2017-12-16T19:10:59.214Z,22.10
2017-12-16T19:13:27.272Z,22.10
2017-12-16T19:15:55.340Z,22.10
2017-12-16T19:18:23.525Z,22.00
2017-12-16T19:20:51.563Z,22.10
2017-12-16T19:23:19.656Z,22.00
2017-12-16T19:25:47.868Z,22.00
2017-12-16T19:28:15.941Z,22.00
2017-12-16T19:30:44.038Z,21.80
2017-12-16T19:33:13.004Z,21.80
2017-12-16T19:35:41.029Z,21.80
2017-12-16T19:38:09.143Z,21.90
2017-12-16T19:40:37.353Z,21.80
2017-12-16T19:43:05.420Z,21.80
2017-12-16T19:45:33.464Z,21.70
2017-12-16T19:48:01.743Z,21.70
2017-12-16T19:50:29.906Z,21.70
2017-12-16T19:52:57.968Z,21.70
2017-12-16T19:55:26.121Z,21.70
2017-12-16T19:57:54.945Z,21.60
2017-12-16T20:00:23.072Z,21.60
2017-12-16T20:02:51.987Z,21.60
2017-12-16T20:05:20.030Z,21.60
2017-12-16T20:07:48.048Z,21.60
2017-12-16T20:10:16.231Z,21.60
2017-12-16T20:12:44.250Z,21.60
2017-12-16T20:15:13.056Z,21.50
2017-12-16T20:17:42.031Z,21.50
2017-12-16T20:20:10.109Z,21.50
2017-12-16T20:22:38.883Z,21.60
2017-12-16T20:25:07.161Z,21.50
2017-12-16T20:27:35.203Z,21.60
2017-12-16T20:30:03.275Z,21.50
2017-12-16T20:32:31.481Z,21.60
2017-12-16T20:34:59.556Z,21.60
2017-12-16T20:37:27.646Z,21.60
2017-12-16T20:39:56.550Z,21.60
2017-12-16T20:42:25.382Z,21.60
2017-12-16T20:44:53.441Z,21.60
2017-12-16T20:47:21.724Z,21.60
2017-12-16T20:49:49.928Z,21.60
2017-12-16T20:52:18.072Z,21.60
2017-12-16T20:54:46.276Z,21.60
2017-12-16T20:57:14.312Z,21.50
2017-12-16T20:59:42.347Z,21.60
2017-12-16T21:02:11.277Z,21.70
2017-12-16T21:04:39.328Z,21.70
2017-12-16T21:07:08.059Z,21.60
2017-12-16T21:09:36.233Z,21.50
2017-12-16T21:12:04.242Z,21.60
2017-12-16T21:14:32.293Z,21.60
2017-12-16T21:17:00.489Z,21.60
2017-12-16T21:19:29.296Z,21.60
2017-12-16T21:21:58.083Z,21.60
2017-12-16T21:24:26.968Z,21.60
2017-12-16T21:26:55.765Z,21.70
2017-12-16T21:29:24.515Z,21.60
2017-12-16T21:31:53.614Z,21.60
2017-12-16T21:34:21.672Z,21.70
2017-12-16T21:36:49.682Z,21.70
2017-12-16T21:39:17.810Z,21.60
2017-12-16T21:41:45.811Z,21.70
2017-12-16T21:44:13.860Z,21.60
2017-12-16T21:46:42.029Z,21.60
2017-12-16T21:49:10.039Z,21.60
2017-12-16T21:51:38.203Z,21.60
2017-12-16T21:54:06.335Z,21.70
2017-12-16T21:56:34.384Z,21.70
2017-12-16T21:59:03.126Z,21.60
2017-12-16T22:01:31.270Z,21.60
2017-12-16T22:03:59.300Z,21.60
2017-12-16T22:06:27.311Z,21.60
2017-12-16T22:08:55.529Z,21.70
2017-12-16T22:11:23.644Z,21.60
2017-12-16T22:13:52.444Z,21.40
2017-12-16T22:16:20.974Z,21.40
2017-12-16T22:18:48.979Z,21.50
2017-12-16T22:21:17.768Z,21.60
2017-12-16T22:23:46.635Z,21.60
2017-12-16T22:26:14.646Z,21.50
2017-12-16T22:28:43.452Z,21.50
2017-12-16T22:31:11.578Z,21.50
2017-12-16T22:33:39.715Z,21.50
2017-12-16T22:36:07.752Z,21.40
2017-12-16T22:38:36.659Z,21.50
2017-12-16T22:41:04.803Z,21.50
2017-12-16T22:43:33.596Z,21.30
2017-12-16T22:46:02.529Z,21.40
2017-12-16T22:48:30.624Z,21.40
2017-12-16T22:50:58.688Z,21.40
2017-12-16T22:53:26.968Z,21.30
2017-12-16T22:55:55.269Z,21.30
2017-12-16T22:58:23.336Z,21.10
2017-12-16T23:00:51.543Z,21.00
2017-12-16T23:03:20.353Z,21.10
2017-12-16T23:05:48.624Z,21.10
2017-12-16T23:08:17.655Z,21.10
2017-12-16T23:10:45.828Z,21.10
2017-12-16T23:13:13.968Z,21.20
2017-12-16T23:15:43.123Z,21.10
2017-12-16T23:18:11.295Z,21.10
2017-12-16T23:20:39.537Z,21.10
2017-12-16T23:23:07.824Z,21.00
2017-12-16T23:25:36.046Z,20.90
2017-12-16T23:28:04.306Z,20.90
2017-12-16T23:30:32.586Z,21.00
2017-12-16T23:33:00.836Z,20.90
2017-12-16T23:35:29.084Z,20.90
2017-12-16T23:37:57.274Z,20.90
2017-12-16T23:40:25.550Z,20.90
2017-12-16T23:42:53.816Z,20.90
2017-12-16T23:45:22.169Z,21.00
2017-12-16T23:47:50.289Z,21.10
2017-12-16T23:50:18.367Z,21.20
2017-12-16T23:52:46.614Z,21.10
2017-12-16T23:55:15.768Z,21.10
2017-12-16T23:57:43.968Z,21.00
